Oak Island, North Carolina
Current Conditions -  °F | °C
As of 8:35 PM on Wednesday 26 Nov 2014 (Local Time) from KSUT Reporting Station
Clear Clear  
Wind Chill: 48°   Ceiling: Unl
Heat Index: 48°   Visibility: 10mi
Dew Point: 43°   Wind: 3mph
Humidity: 84%   Direction: 310°NW
Pressure: 30.08"   Gusts: NA
Location:  33.92°N, 78.16°W
Report Text: KSUT 270135Z AUTO 31003KT 10SM CLR 09/06 A3008 RMK AO2 T00870062
Loading
Personal Weather Stations






























Interactive Weather Map New forecast layout! Learn more

10-Day Weather Forecast

Advertisements
Track Severe Weather on mobile